createdAt,value
2022-11-12T00:01:57.632Z,6.50
2022-11-12T00:04:27.390Z,6.50
2022-11-12T00:06:55.526Z,6.40
2022-11-12T00:09:23.647Z,6.60
2022-11-12T00:11:51.904Z,6.60
2022-11-12T00:14:20.014Z,6.60
2022-11-12T00:16:47.903Z,6.60
2022-11-12T00:19:15.782Z,6.50
2022-11-12T00:21:45.071Z,6.50
2022-11-12T00:24:16.050Z,6.50
2022-11-12T00:26:44.129Z,6.50
2022-11-12T00:29:12.042Z,6.50
2022-11-12T00:31:40.110Z,6.40
2022-11-12T00:34:08.023Z,6.50
2022-11-12T00:36:36.656Z,6.40
2022-11-12T00:39:06.768Z,6.50
2022-11-12T00:41:34.733Z,6.50
2022-11-12T00:44:02.635Z,6.40
2022-11-12T00:46:30.803Z,6.30
2022-11-12T00:48:58.720Z,6.40
2022-11-12T00:51:26.550Z,6.50
2022-11-12T00:53:54.440Z,6.40
2022-11-12T00:56:23.851Z,6.50
2022-11-12T00:58:51.987Z,6.40
2022-11-12T01:01:20.420Z,6.30
2022-11-12T01:03:50.116Z,6.20
2022-11-12T01:06:21.050Z,6.20
2022-11-12T01:08:51.895Z,6.20
2022-11-12T01:11:25.090Z,6.30
2022-11-12T01:13:56.673Z,6.30
2022-11-12T01:16:26.707Z,6.20
2022-11-12T01:18:55.805Z,6.10
2022-11-12T01:21:25.281Z,6.10
2022-11-12T01:23:53.258Z,6.00
2022-11-12T01:26:23.774Z,6.00
2022-11-12T01:28:51.715Z,6.00
2022-11-12T01:31:21.682Z,6.00
2022-11-12T01:33:53.627Z,6.00
2022-11-12T01:36:25.827Z,6.10
2022-11-12T01:38:54.548Z,6.10
2022-11-12T01:41:26.122Z,6.10
2022-11-12T01:44:09.390Z,6.20
2022-11-12T01:46:41.756Z,6.00
2022-11-12T01:49:15.468Z,6.20
2022-11-12T01:51:48.763Z,6.10
2022-11-12T01:54:19.048Z,6.30
2022-11-12T01:56:50.607Z,6.30
2022-11-12T01:59:23.657Z,6.30
2022-11-12T02:01:51.542Z,6.00
2022-11-12T02:04:19.856Z,6.00
2022-11-12T02:06:50.504Z,6.00
2022-11-12T02:09:19.022Z,6.00
2022-11-12T02:11:48.419Z,6.10
2022-11-12T02:14:15.425Z,6.10
2022-11-12T02:16:45.999Z,5.90
2022-11-12T02:19:16.997Z,6.00
2022-11-12T02:21:47.505Z,6.00
2022-11-12T02:24:36.843Z,6.00
2022-11-12T02:27:06.130Z,6.10
2022-11-12T02:29:34.372Z,6.20
2022-11-12T02:32:02.264Z,6.10
2022-11-12T02:34:30.155Z,6.00
2022-11-12T02:36:59.470Z,5.90
2022-11-12T02:39:27.425Z,6.00
2022-11-12T02:41:55.346Z,6.00
2022-11-12T02:44:23.293Z,6.00
2022-11-12T02:46:51.217Z,6.10
2022-11-12T02:49:19.177Z,6.20
2022-11-12T02:51:47.099Z,6.30
2022-11-12T02:54:16.402Z,6.20
2022-11-12T02:56:48.766Z,6.10
2022-11-12T02:59:16.693Z,6.20
2022-11-12T03:01:46.938Z,6.20
2022-11-12T03:04:14.812Z,6.20
2022-11-12T03:06:42.839Z,6.20
2022-11-12T03:09:12.793Z,6.20
2022-11-12T03:11:42.198Z,6.20
2022-11-12T03:14:13.273Z,6.20
2022-11-12T03:16:41.219Z,6.10
2022-11-12T03:19:09.430Z,6.20
2022-11-12T03:21:37.385Z,6.10
2022-11-12T03:24:05.795Z,6.20
2022-11-12T03:26:35.940Z,6.10
2022-11-12T03:29:05.775Z,6.10
2022-11-12T03:31:35.209Z,6.20
2022-11-12T03:34:03.497Z,6.20
2022-11-12T03:36:31.994Z,6.30
2022-11-12T03:38:59.822Z,6.20
2022-11-12T03:41:29.447Z,6.00
2022-11-12T03:43:57.727Z,6.00
2022-11-12T03:46:26.942Z,6.10
2022-11-12T03:48:54.876Z,6.10
2022-11-12T03:51:24.659Z,6.00
2022-11-12T03:53:52.675Z,5.90
2022-11-12T03:56:20.988Z,5.90
2022-11-12T03:58:49.126Z,5.80
2022-11-12T04:01:18.298Z,5.90
2022-11-12T04:03:47.555Z,6.00
2022-11-12T04:06:33.273Z,6.00
2022-11-12T04:09:01.164Z,5.90
2022-11-12T04:11:29.106Z,5.80
2022-11-12T04:13:57.105Z,5.80
2022-11-12T04:16:42.544Z,5.80
2022-11-12T04:19:30.727Z,5.90
2022-11-12T04:22:02.961Z,5.80
2022-11-12T04:24:50.576Z,5.80
2022-11-12T04:27:20.237Z,5.70
2022-11-12T04:30:06.985Z,5.70
2022-11-12T04:32:37.069Z,5.70
2022-11-12T04:35:08.039Z,5.60
2022-11-12T04:37:47.828Z,5.60
2022-11-12T04:40:33.983Z,5.60
2022-11-12T04:43:19.975Z,5.60
2022-11-12T04:45:51.190Z,5.50
2022-11-12T04:48:19.884Z,5.50
2022-11-12T04:50:53.886Z,5.30
2022-11-12T04:53:22.174Z,5.20
2022-11-12T04:55:50.989Z,5.30
2022-11-12T04:58:19.017Z,5.40
2022-11-12T05:00:47.047Z,5.30
2022-11-12T05:03:14.931Z,5.40
2022-11-12T05:05:43.215Z,5.20
2022-11-12T05:08:12.506Z,5.30
2022-11-12T05:10:40.461Z,5.40
2022-11-12T05:13:08.338Z,5.30
2022-11-12T05:15:36.224Z,5.00
2022-11-12T05:18:04.268Z,5.10
2022-11-12T05:20:32.234Z,5.20
2022-11-12T05:23:06.912Z,5.10
2022-11-12T05:25:37.501Z,5.20
2022-11-12T05:28:07.093Z,5.10
2022-11-12T05:30:36.513Z,5.10
2022-11-12T05:33:04.559Z,5.10
2022-11-12T05:35:32.477Z,5.10
2022-11-12T05:38:00.425Z,4.90
2022-11-12T05:40:28.313Z,4.80
2022-11-12T05:42:57.642Z,4.70
2022-11-12T05:45:25.559Z,4.70
2022-11-12T05:47:53.450Z,4.80
2022-11-12T05:50:21.332Z,4.70
2022-11-12T05:52:49.220Z,4.70
2022-11-12T05:55:17.210Z,4.70
2022-11-12T05:57:45.693Z,4.70
2022-11-12T06:00:15.995Z,4.70
2022-11-12T06:02:44.091Z,4.80
2022-11-12T06:05:12.008Z,4.80
2022-11-12T06:07:40.796Z,4.80
2022-11-12T06:10:09.689Z,4.80
2022-11-12T06:12:37.564Z,4.80
2022-11-12T06:15:06.193Z,4.90
2022-11-12T06:17:35.445Z,4.90
2022-11-12T06:20:03.381Z,5.00
2022-11-12T06:22:31.295Z,4.80
2022-11-12T06:24:59.200Z,4.90
2022-11-12T06:27:27.105Z,5.00
2022-11-12T06:29:54.986Z,5.00
2022-11-12T06:32:22.874Z,5.00
2022-11-12T06:34:53.591Z,5.10
2022-11-12T06:37:22.050Z,5.00
2022-11-12T06:39:50.091Z,4.90
2022-11-12T06:42:18.299Z,5.00
2022-11-12T06:44:46.180Z,5.00
2022-11-12T06:47:14.278Z,5.00
2022-11-12T06:49:42.495Z,5.00
2022-11-12T06:52:16.413Z,5.10
2022-11-12T06:54:44.739Z,5.20
2022-11-12T06:57:13.007Z,5.10
2022-11-12T06:59:41.088Z,5.20
2022-11-12T07:02:09.048Z,5.10
2022-11-12T07:04:36.966Z,5.10
2022-11-12T07:07:10.248Z,5.00
2022-11-12T07:09:40.091Z,5.00
2022-11-12T07:14:33.877Z,5.00
2022-11-12T07:17:01.919Z,5.10
2022-11-12T07:19:29.877Z,5.00
2022-11-12T07:21:57.763Z,5.10
2022-11-12T07:24:25.668Z,5.10
2022-11-12T07:26:55.021Z,5.10
2022-11-12T07:29:42.609Z,5.00
2022-11-12T07:32:10.865Z,4.90
2022-11-12T07:34:38.752Z,4.90
2022-11-12T07:37:06.659Z,5.00
2022-11-12T07:39:34.509Z,5.20
2022-11-12T07:42:04.139Z,5.10
2022-11-12T07:44:35.216Z,5.20
2022-11-12T07:47:03.462Z,5.20
2022-11-12T07:49:31.379Z,5.20
2022-11-12T07:51:59.270Z,5.20
2022-11-12T07:54:27.911Z,5.30
2022-11-12T07:56:55.767Z,5.20
2022-11-12T07:59:25.004Z,5.40
2022-11-12T08:01:53.080Z,5.50
2022-11-12T08:04:21.233Z,5.70
2022-11-12T08:06:49.832Z,5.70
2022-11-12T08:09:18.177Z,5.80
2022-11-12T08:11:49.033Z,5.90
2022-11-12T08:14:18.955Z,5.80
2022-11-12T08:16:48.487Z,5.80
2022-11-12T08:19:16.496Z,5.90
2022-11-12T08:21:44.683Z,5.90
2022-11-12T08:24:15.405Z,5.80
2022-11-12T08:26:43.399Z,5.80
2022-11-12T08:29:11.460Z,5.70
2022-11-12T08:31:39.773Z,5.70
2022-11-12T08:34:21.413Z,5.70
2022-11-12T08:36:50.483Z,5.80
2022-11-12T08:39:18.429Z,5.90
2022-11-12T08:41:49.116Z,5.90
2022-11-12T08:44:17.032Z,6.00
2022-11-12T08:46:44.962Z,6.10
2022-11-12T08:49:14.224Z,6.20
2022-11-12T08:51:42.329Z,6.20
2022-11-12T08:54:10.402Z,6.20
2022-11-12T08:56:38.334Z,6.30
2022-11-12T08:59:07.503Z,6.30
2022-11-12T09:01:35.718Z,6.50
2022-11-12T09:04:03.781Z,6.50
2022-11-12T09:06:34.116Z,6.60
2022-11-12T09:09:02.143Z,6.70
2022-11-12T09:11:30.286Z,6.70
2022-11-12T09:13:58.323Z,6.70
2022-11-12T09:16:26.282Z,6.80
2022-11-12T09:18:54.164Z,6.60
2022-11-12T09:21:24.741Z,6.60
2022-11-12T09:23:54.079Z,6.80
2022-11-12T09:26:21.970Z,6.90
2022-11-12T09:28:49.913Z,6.80
2022-11-12T09:31:17.937Z,6.80
2022-11-12T09:33:45.984Z,6.90
2022-11-12T09:36:13.956Z,6.60
2022-11-12T09:38:41.964Z,6.80
2022-11-12T09:41:33.447Z,6.90
2022-11-12T09:44:05.249Z,6.80
2022-11-12T09:46:40.234Z,6.80
2022-11-12T09:49:15.483Z,6.80
2022-11-12T09:51:49.295Z,6.80
2022-11-12T09:54:26.007Z,6.90
2022-11-12T09:56:55.569Z,6.90
2022-11-12T09:59:25.112Z,6.90
2022-11-12T10:02:06.423Z,6.90
2022-11-12T10:05:04.188Z,6.90
2022-11-12T10:07:43.595Z,6.90
2022-11-12T10:10:16.181Z,6.90
2022-11-12T10:13:06.930Z,6.90
2022-11-12T10:16:10.708Z,6.80
2022-11-12T10:18:49.643Z,6.90
2022-11-12T10:21:27.206Z,7.00
2022-11-12T10:23:55.438Z,7.00
2022-11-12T10:26:25.888Z,7.00
2022-11-12T10:29:04.293Z,7.00
2022-11-12T10:31:32.292Z,7.00
2022-11-12T10:34:17.664Z,7.00
2022-11-12T10:36:49.957Z,7.20
2022-11-12T10:39:38.517Z,7.20
2022-11-12T10:42:08.821Z,7.10
2022-11-12T10:44:42.487Z,7.30
2022-11-12T10:47:26.598Z,7.30
2022-11-12T10:50:05.718Z,7.10
2022-11-12T10:52:33.658Z,7.20
2022-11-12T10:55:08.690Z,7.20
2022-11-12T10:57:36.671Z,7.10
2022-11-12T11:00:18.086Z,7.00
2022-11-12T11:02:52.300Z,7.30
2022-11-12T11:05:35.846Z,7.40
2022-11-12T11:08:07.322Z,7.60
2022-11-12T11:10:37.800Z,7.60
2022-11-12T11:13:21.076Z,7.70
2022-11-12T11:16:01.814Z,7.70
2022-11-12T11:18:31.242Z,7.60
2022-11-12T11:21:22.220Z,7.80
2022-11-12T11:23:57.525Z,7.90
2022-11-12T11:26:34.148Z,7.80
2022-11-12T11:29:21.855Z,7.70
2022-11-12T11:31:57.415Z,7.70
2022-11-12T11:34:38.445Z,7.50
2022-11-12T11:37:17.205Z,7.50
2022-11-12T11:39:54.562Z,7.70
2022-11-12T11:42:41.089Z,7.60
2022-11-12T11:45:16.262Z,7.80
2022-11-12T11:48:02.503Z,7.70
2022-11-12T11:50:34.796Z,7.80
2022-11-12T11:53:16.920Z,7.90
2022-11-12T11:55:54.284Z,7.90
2022-11-12T11:58:56.007Z,7.90
2022-11-12T12:01:31.903Z,7.90
2022-11-12T12:04:28.362Z,7.90
2022-11-12T12:07:09.423Z,7.80
2022-11-12T12:09:43.868Z,7.70
2022-11-12T12:12:23.779Z,8.00
2022-11-12T12:14:59.247Z,8.00
2022-11-12T12:17:43.213Z,7.70
2022-11-12T12:20:20.644Z,7.90
2022-11-12T12:22:53.077Z,8.10
2022-11-12T12:25:26.250Z,8.10
2022-11-12T12:28:00.924Z,8.20
2022-11-12T12:30:33.896Z,8.10
2022-11-12T12:33:19.624Z,7.80
2022-11-12T12:35:55.288Z,7.90
2022-11-12T12:38:29.841Z,8.00
2022-11-12T12:41:05.237Z,8.20
2022-11-12T12:43:38.137Z,8.00
2022-11-12T12:46:08.027Z,8.20
2022-11-12T12:48:39.076Z,8.20
2022-11-12T12:51:08.620Z,8.20
2022-11-12T12:53:37.366Z,8.00
2022-11-12T12:56:07.173Z,8.20
2022-11-12T12:58:44.010Z,8.00
2022-11-12T13:01:28.147Z,7.90
2022-11-12T13:03:59.387Z,8.10
2022-11-12T13:06:35.130Z,8.30
2022-11-12T13:09:07.122Z,8.40
2022-11-12T13:14:52.400Z,8.30
2022-11-12T13:17:58.939Z,8.20
2022-11-12T13:20:42.890Z,8.20
2022-11-12T13:23:59.813Z,8.30
2022-11-12T13:26:49.826Z,8.20
2022-11-12T13:29:45.441Z,8.30
2022-11-12T13:32:30.757Z,8.20
2022-11-12T13:35:29.212Z,8.20
2022-11-12T13:38:00.526Z,8.20
2022-11-12T13:40:40.357Z,8.20
2022-11-12T13:43:17.104Z,8.20
2022-11-12T13:45:49.263Z,8.20
2022-11-12T13:48:26.368Z,8.10
2022-11-12T13:50:57.352Z,8.10
2022-11-12T13:53:28.931Z,8.00
2022-11-12T13:55:58.277Z,8.00
2022-11-12T13:58:30.646Z,8.10
2022-11-12T14:01:01.055Z,8.20
2022-11-12T14:03:32.239Z,8.30
2022-11-12T14:06:06.149Z,8.40
2022-11-12T14:09:14.025Z,8.50
2022-11-12T14:14:51.865Z,8.50
2022-11-12T14:17:30.350Z,8.50
2022-11-12T14:20:26.031Z,8.40
2022-11-12T14:22:54.780Z,8.50
2022-11-12T14:25:24.745Z,8.50
2022-11-12T14:27:57.659Z,8.40
2022-11-12T14:30:28.439Z,8.30
2022-11-12T14:33:00.371Z,8.20
2022-11-12T14:35:35.247Z,8.20
2022-11-12T14:38:22.525Z,8.20
2022-11-12T14:40:54.669Z,8.10
2022-11-12T14:43:33.308Z,8.10
2022-11-12T14:46:03.749Z,8.00
2022-11-12T14:48:38.171Z,8.00
2022-11-12T14:51:12.281Z,8.00
2022-11-12T14:53:44.768Z,8.00
2022-11-12T14:56:22.461Z,8.10
2022-11-12T14:58:57.988Z,8.10
2022-11-12T15:02:13.907Z,8.00
2022-11-12T15:04:20.925Z,7.90
2022-11-12T15:06:55.940Z,7.90
2022-11-12T15:09:35.861Z,8.00
2022-11-12T15:12:06.009Z,8.00
2022-11-12T15:14:36.201Z,7.90
2022-11-12T15:17:05.666Z,7.90
2022-11-12T15:19:35.075Z,7.90
2022-11-12T15:22:04.925Z,7.80
2022-11-12T15:24:34.477Z,7.60
2022-11-12T15:27:23.212Z,7.50
2022-11-12T15:30:16.096Z,7.60
2022-11-12T15:32:44.882Z,7.60
2022-11-12T15:35:38.073Z,7.40
2022-11-12T15:38:08.865Z,7.30
2022-11-12T15:40:44.843Z,7.30
2022-11-12T15:43:19.122Z,7.40
2022-11-12T15:45:51.613Z,7.40
2022-11-12T15:48:19.794Z,7.40
2022-11-12T15:50:49.113Z,7.40
2022-11-12T15:53:21.158Z,7.40
2022-11-12T15:55:49.505Z,7.50
2022-11-12T15:58:31.637Z,7.50
2022-11-12T16:01:01.161Z,7.40
2022-11-12T16:03:29.433Z,7.40
2022-11-12T16:05:57.903Z,7.40
2022-11-12T16:08:30.164Z,7.40
2022-11-12T16:10:58.275Z,7.40
2022-11-12T16:13:31.484Z,7.30
2022-11-12T16:16:03.158Z,7.40
2022-11-12T16:18:31.359Z,7.30
2022-11-12T16:20:59.285Z,7.30
2022-11-12T16:23:27.507Z,7.30
2022-11-12T16:25:55.827Z,7.30
2022-11-12T16:28:23.852Z,7.40
2022-11-12T16:30:51.718Z,7.30
2022-11-12T16:33:20.995Z,7.30
2022-11-12T16:35:49.034Z,7.20
2022-11-12T16:38:18.185Z,7.20
2022-11-12T16:40:46.545Z,7.40
2022-11-12T16:43:14.817Z,7.20
2022-11-12T16:45:44.579Z,7.20
2022-11-12T16:48:15.409Z,7.00
2022-11-12T16:50:44.624Z,7.00
2022-11-12T16:53:12.514Z,7.10
2022-11-12T16:55:40.576Z,7.00
2022-11-12T16:58:08.668Z,7.10
2022-11-12T17:00:36.581Z,7.10
2022-11-12T17:03:04.574Z,7.20
2022-11-12T17:05:32.481Z,7.10
2022-11-12T17:08:01.728Z,7.00
2022-11-12T17:10:29.660Z,7.00
2022-11-12T17:12:57.654Z,7.10
2022-11-12T17:15:25.569Z,7.00
2022-11-12T17:17:55.023Z,7.00
2022-11-12T17:20:23.124Z,7.10
2022-11-12T17:22:51.005Z,7.00
2022-11-12T17:25:20.334Z,7.00
2022-11-12T17:27:49.934Z,7.00
2022-11-12T17:30:18.715Z,6.90
2022-11-12T17:32:46.783Z,7.00
2022-11-12T17:35:14.839Z,7.10
2022-11-12T17:37:42.787Z,7.10
2022-11-12T17:40:11.801Z,7.00
2022-11-12T17:42:43.783Z,7.00
2022-11-12T17:45:11.928Z,7.00
2022-11-12T17:47:40.746Z,7.00
2022-11-12T17:50:09.887Z,7.10
2022-11-12T17:52:37.755Z,7.10
2022-11-12T17:55:06.426Z,7.20
2022-11-12T17:57:34.385Z,7.00
2022-11-12T18:00:04.324Z,7.00
2022-11-12T18:02:32.198Z,7.20
2022-11-12T18:05:01.412Z,7.20
2022-11-12T18:07:29.777Z,7.20
2022-11-12T18:09:57.792Z,7.20
2022-11-12T18:12:25.773Z,7.20
2022-11-12T18:14:53.751Z,7.20
2022-11-12T18:17:23.107Z,7.10
2022-11-12T18:19:51.007Z,7.00
2022-11-12T18:22:20.598Z,7.10
2022-11-12T18:24:48.885Z,7.10
2022-11-12T18:27:16.828Z,7.00
2022-11-12T18:29:45.636Z,6.90
2022-11-12T18:32:13.614Z,6.80
2022-11-12T18:34:45.034Z,6.80
2022-11-12T18:37:13.235Z,6.90
2022-11-12T18:39:41.362Z,6.90
2022-11-12T18:42:09.320Z,6.80
2022-11-12T18:44:37.477Z,6.70
2022-11-12T18:47:05.710Z,6.70
2022-11-12T18:49:33.758Z,6.80
2022-11-12T18:52:03.810Z,6.80
2022-11-12T18:54:31.774Z,6.70
2022-11-12T18:56:59.678Z,6.80
2022-11-12T18:59:30.768Z,6.60
2022-11-12T19:01:58.814Z,6.50
2022-11-12T19:04:27.181Z,6.60
2022-11-12T19:06:55.122Z,6.60
2022-11-12T19:09:24.618Z,6.60
2022-11-12T19:11:52.828Z,6.80
2022-11-12T19:14:20.757Z,6.80
2022-11-12T19:16:51.799Z,6.80
2022-11-12T19:19:19.715Z,6.90
2022-11-12T19:21:48.816Z,6.70
2022-11-12T19:24:19.800Z,6.60
2022-11-12T19:26:49.074Z,6.60
2022-11-12T19:29:17.071Z,6.70
2022-11-12T19:31:47.800Z,6.50
2022-11-12T19:34:15.830Z,6.40
2022-11-12T19:36:44.014Z,6.50
2022-11-12T19:39:11.981Z,6.50
2022-11-12T19:41:39.858Z,6.40
2022-11-12T19:44:12.621Z,6.40
2022-11-12T19:46:43.780Z,6.30
2022-11-12T19:49:11.945Z,6.30
2022-11-12T19:51:40.241Z,6.30
2022-11-12T19:54:12.556Z,6.40
2022-11-12T19:56:42.987Z,6.50
2022-11-12T19:59:12.564Z,6.40
2022-11-12T20:01:47.810Z,6.40
2022-11-12T20:04:23.923Z,6.40
2022-11-12T20:06:57.826Z,6.30
2022-11-12T20:09:25.884Z,6.30
2022-11-12T20:11:54.143Z,6.20
2022-11-12T20:14:23.638Z,6.20
2022-11-12T20:16:51.954Z,6.10
2022-11-12T20:19:20.092Z,6.20
2022-11-12T20:21:48.407Z,6.20
2022-11-12T20:24:16.440Z,6.20
2022-11-12T20:26:44.631Z,6.20
2022-11-12T20:29:12.773Z,6.20
2022-11-12T20:31:43.114Z,6.30
2022-11-12T20:34:12.917Z,6.40
2022-11-12T20:36:40.937Z,6.50
2022-11-12T20:39:08.928Z,6.40
2022-11-12T20:41:37.522Z,6.60
2022-11-12T20:44:05.963Z,6.60
2022-11-12T20:46:34.503Z,6.40
2022-11-12T20:49:06.578Z,6.40
2022-11-12T20:51:35.097Z,6.40
2022-11-12T20:54:03.265Z,6.50
2022-11-12T20:56:32.271Z,6.60
2022-11-12T20:59:01.204Z,6.60
2022-11-12T21:01:31.135Z,6.30
2022-11-12T21:03:59.545Z,6.30
2022-11-12T21:06:30.585Z,6.20
2022-11-12T21:09:06.570Z,6.20
2022-11-12T21:11:34.864Z,6.30
2022-11-12T21:14:15.157Z,6.30
2022-11-12T21:16:43.159Z,6.30
2022-11-12T21:19:13.605Z,6.30
2022-11-12T21:21:42.867Z,6.30
2022-11-12T21:24:13.334Z,6.10
2022-11-12T21:26:41.277Z,6.20
2022-11-12T21:29:09.210Z,6.10
2022-11-12T21:31:37.274Z,6.20
2022-11-12T21:34:07.009Z,6.20
2022-11-12T21:36:35.458Z,6.30
2022-11-12T21:39:05.713Z,6.10
2022-11-12T21:41:33.707Z,5.90
2022-11-12T21:44:01.564Z,6.00
2022-11-12T21:46:31.406Z,6.10
2022-11-12T21:48:59.370Z,6.10
2022-11-12T21:51:29.869Z,6.20
2022-11-12T21:53:59.652Z,6.10
2022-11-12T21:56:30.008Z,6.20
2022-11-12T21:59:00.436Z,6.20
2022-11-12T22:01:30.175Z,6.10
2022-11-12T22:03:59.508Z,6.20
2022-11-12T22:06:29.527Z,6.30
2022-11-12T22:08:58.692Z,6.20
2022-11-12T22:11:30.128Z,6.20
2022-11-12T22:13:58.345Z,6.20
2022-11-12T22:16:29.303Z,6.20
2022-11-12T22:18:58.512Z,6.10
2022-11-12T22:21:28.688Z,6.00
2022-11-12T22:23:57.562Z,6.10
2022-11-12T22:26:26.873Z,6.20
2022-11-12T22:28:58.078Z,6.30
2022-11-12T22:31:28.145Z,6.30
2022-11-12T22:33:57.058Z,6.00
2022-11-12T22:36:27.673Z,6.00
2022-11-12T22:38:56.007Z,6.00
2022-11-12T22:41:25.545Z,5.80
2022-11-12T22:43:56.344Z,5.60
2022-11-12T22:46:26.119Z,5.80
2022-11-12T22:48:54.762Z,5.90
2022-11-12T22:51:24.426Z,6.00
2022-11-12T22:53:55.201Z,6.00
2022-11-12T22:56:24.382Z,5.80
2022-11-12T22:58:52.610Z,5.80
2022-11-12T23:01:23.684Z,5.80
2022-11-12T23:03:58.552Z,5.80
2022-11-12T23:06:27.191Z,6.00
2022-11-12T23:08:56.170Z,5.90
2022-11-12T23:11:26.041Z,5.90
2022-11-12T23:13:54.879Z,5.90
2022-11-12T23:16:26.172Z,5.90
2022-11-12T23:18:54.974Z,6.00
2022-11-12T23:21:25.385Z,5.90
2022-11-12T23:23:53.505Z,5.70
2022-11-12T23:26:23.071Z,5.70
2022-11-12T23:28:52.006Z,5.70
2022-11-12T23:31:22.028Z,5.60
2022-11-12T23:33:53.472Z,5.70
2022-11-12T23:36:22.222Z,5.80
2022-11-12T23:38:51.102Z,5.80
2022-11-12T23:41:23.469Z,5.90
2022-11-12T23:43:51.706Z,5.60
2022-11-12T23:46:19.931Z,5.50
2022-11-12T23:48:47.965Z,5.60
2022-11-12T23:51:19.424Z,5.50
2022-11-12T23:53:50.653Z,5.40
2022-11-12T23:56:20.664Z,5.60
2022-11-12T23:58:49.072Z,5.60
